createdAt,value
2019-05-29T00:00:01.719Z,7.9
2019-05-29T00:05:02.041Z,7.9
2019-05-29T00:10:02.102Z,7.8
2019-05-29T00:15:01.448Z,7.8
2019-05-29T00:20:01.323Z,7.8
2019-05-29T00:25:02.013Z,7.8
2019-05-29T00:30:02.338Z,7.8
2019-05-29T00:35:01.466Z,7.8
2019-05-29T00:40:02.118Z,7.7
2019-05-29T00:45:01.829Z,7.7
2019-05-29T00:50:02.290Z,7.7
2019-05-29T00:55:01.898Z,7.6
2019-05-29T01:00:02.133Z,7.6
2019-05-29T01:05:01.524Z,7.5
2019-05-29T01:10:02.131Z,7.5
2019-05-29T01:15:01.493Z,7.5
2019-05-29T01:20:01.543Z,7.4
2019-05-29T01:25:01.293Z,7.3
2019-05-29T01:30:02.115Z,7.3
2019-05-29T01:35:01.937Z,7.2
2019-05-29T01:40:16.516Z,7.2
2019-05-29T01:45:07.507Z,7.2
2019-05-29T01:50:02.213Z,7.2
2019-05-29T01:55:01.478Z,7.1
2019-05-29T02:00:01.876Z,7.1
2019-05-29T02:05:01.244Z,7.1
2019-05-29T02:10:01.669Z,7
2019-05-29T02:15:01.691Z,6.9
2019-05-29T02:20:01.485Z,6.9
2019-05-29T02:25:02.112Z,6.9
2019-05-29T02:30:01.836Z,6.9
2019-05-29T02:35:01.985Z,6.8
2019-05-29T02:40:02.246Z,6.8
2019-05-29T02:45:01.895Z,6.8
2019-05-29T02:50:01.996Z,6.7
2019-05-29T02:55:01.863Z,6.7
2019-05-29T03:00:02.038Z,6.7
2019-05-29T03:05:01.163Z,6.6
2019-05-29T03:10:01.615Z,6.6
2019-05-29T03:15:02.478Z,6.5
2019-05-29T03:20:02.032Z,6.5
2019-05-29T03:25:01.247Z,6.5
2019-05-29T03:30:01.585Z,6.4
2019-05-29T03:35:01.967Z,6.4
2019-05-29T03:40:02.114Z,6.5
2019-05-29T03:45:01.938Z,6.5
2019-05-29T03:50:02.006Z,6.5
2019-05-29T03:55:01.986Z,6.6
2019-05-29T04:00:02.070Z,6.6
2019-05-29T04:05:02.214Z,6.7
2019-05-29T04:10:02.048Z,6.7
2019-05-29T04:15:01.923Z,6.8
2019-05-29T04:20:01.499Z,6.9
2019-05-29T04:25:01.532Z,6.9
2019-05-29T04:30:01.559Z,7.1
2019-05-29T04:35:01.997Z,8.7
2019-05-29T04:40:02.057Z,9.9
2019-05-29T04:45:01.461Z,10.9
2019-05-29T04:50:02.223Z,11.4
2019-05-29T04:55:01.611Z,11.4
2019-05-29T05:00:01.552Z,11.3
2019-05-29T05:05:01.738Z,11
2019-05-29T05:10:01.536Z,10.9
2019-05-29T05:15:01.425Z,10.5
2019-05-29T05:20:01.584Z,10.3
2019-05-29T05:25:01.362Z,10.3
2019-05-29T05:30:01.782Z,10.4
2019-05-29T05:35:01.311Z,10.5
2019-05-29T05:40:02.143Z,10.7
2019-05-29T05:45:01.295Z,10.6
2019-05-29T05:50:01.993Z,10.8
2019-05-29T05:55:02.179Z,11
2019-05-29T06:00:01.669Z,11.2
2019-05-29T06:05:01.745Z,11.5
2019-05-29T06:10:02.008Z,11.6
2019-05-29T06:15:02.152Z,11.8
2019-05-29T06:20:02.130Z,12.2
2019-05-29T06:25:01.718Z,12.4
2019-05-29T06:30:01.604Z,12.5
2019-05-29T06:35:01.727Z,12.7
2019-05-29T06:40:02.164Z,13
2019-05-29T06:45:03.029Z,13.3
2019-05-29T06:50:01.208Z,13.5
2019-05-29T06:55:01.549Z,13.3
2019-05-29T07:00:01.626Z,13.4
2019-05-29T07:05:02.111Z,13.9
2019-05-29T07:10:01.371Z,14
2019-05-29T07:15:01.561Z,14.2
2019-05-29T07:20:03.926Z,14.6
2019-05-29T07:25:01.930Z,14.5
2019-05-29T07:30:01.491Z,14.6
2019-05-29T07:35:03.430Z,15
2019-05-29T07:40:01.871Z,15.2
2019-05-29T07:45:02.185Z,15.5
2019-05-29T07:50:02.058Z,15.3
2019-05-29T07:55:02.111Z,15.3
2019-05-29T08:00:01.993Z,15.4
2019-05-29T08:05:01.326Z,15.9
2019-05-29T08:10:01.341Z,16.3
2019-05-29T08:15:01.253Z,16.9
2019-05-29T08:20:06.728Z,17
2019-05-29T08:25:01.482Z,16.9
2019-05-29T08:30:01.607Z,16.6
2019-05-29T08:35:02.902Z,17
2019-05-29T08:40:02.006Z,17.7
2019-05-29T08:45:01.242Z,17.2
2019-05-29T08:50:17.079Z,16.6
2019-05-29T08:55:01.678Z,16.2
2019-05-29T09:00:01.773Z,16.1
2019-05-29T09:05:02.908Z,16.3
2019-05-29T09:10:02.913Z,16.1
2019-05-29T09:15:01.657Z,16.1
2019-05-29T09:20:01.992Z,15.6
2019-05-29T09:25:02.317Z,15.3
2019-05-29T09:30:02.139Z,15.8
2019-05-29T09:35:01.457Z,16.4
2019-05-29T09:40:01.726Z,16.7
2019-05-29T09:45:01.893Z,17.4
2019-05-29T09:50:01.919Z,17.7
2019-05-29T09:55:02.552Z,17.5
2019-05-29T10:00:02.634Z,17
2019-05-29T10:05:02.850Z,16.9
2019-05-29T10:10:03.460Z,17.9
2019-05-29T10:15:02.618Z,18.5
2019-05-29T10:20:03.260Z,18
2019-05-29T10:25:02.036Z,17.8
2019-05-29T10:30:02.056Z,17.8
2019-05-29T10:35:01.807Z,17.5
2019-05-29T10:40:02.835Z,17.2
2019-05-29T10:45:01.597Z,17.1
2019-05-29T10:50:02.010Z,17.3
2019-05-29T10:55:02.215Z,17.1
2019-05-29T11:00:02.188Z,16.8
2019-05-29T11:05:01.449Z,16.8
2019-05-29T11:10:02.075Z,16.8
2019-05-29T11:15:01.818Z,16.6
2019-05-29T11:20:01.958Z,16.4
2019-05-29T11:25:20.914Z,16.4
2019-05-29T11:30:01.600Z,16.6
2019-05-29T11:35:02.209Z,17.3
2019-05-29T11:40:03.219Z,18.3
2019-05-29T11:45:01.486Z,18.8
2019-05-29T11:50:16.119Z,19.2
2019-05-29T11:55:04.318Z,19.5
2019-05-29T12:00:09.252Z,19.2
2019-05-29T12:05:03.820Z,19.3
2019-05-29T12:10:04.103Z,19.9
2019-05-29T12:15:09.725Z,20.2
2019-05-29T12:20:03.973Z,20.4
2019-05-29T12:25:02.870Z,19.9
2019-05-29T12:30:01.310Z,19
2019-05-29T12:35:03.034Z,18.4
2019-05-29T12:40:01.909Z,18
2019-05-29T12:45:01.996Z,17.7
2019-05-29T12:50:02.631Z,17.6
2019-05-29T12:55:02.393Z,17.8
2019-05-29T13:00:03.548Z,18.3
2019-05-29T13:05:08.180Z,19.1
2019-05-29T13:10:02.787Z,19.1
2019-05-29T13:15:03.440Z,18.9
2019-05-29T13:20:13.528Z,19.6
2019-05-29T13:25:01.793Z,19.6
2019-05-29T13:30:04.075Z,19
2019-05-29T13:35:02.206Z,18.8
2019-05-29T13:40:05.398Z,18.6
2019-05-29T13:45:10.926Z,17.9
2019-05-29T13:50:06.216Z,17.6
2019-05-29T13:55:01.578Z,17.4
2019-05-29T14:00:10.459Z,17.6
2019-05-29T14:05:02.777Z,17.6
2019-05-29T14:10:01.282Z,17.3
2019-05-29T14:15:02.283Z,17
2019-05-29T14:20:02.644Z,17.5
2019-05-29T14:25:01.299Z,18.2
2019-05-29T14:30:03.457Z,17.7
2019-05-29T14:35:04.120Z,17.6
2019-05-29T14:40:01.675Z,17.8
2019-05-29T14:45:02.169Z,17.5
2019-05-29T14:50:02.550Z,17.6
2019-05-29T14:55:02.785Z,17.9
2019-05-29T15:00:06.628Z,17.8
2019-05-29T15:05:01.815Z,17.9
2019-05-29T15:10:08.456Z,18.6
2019-05-29T15:15:01.845Z,19.2
2019-05-29T15:20:02.158Z,18.8
2019-05-29T15:25:12.007Z,18.3
2019-05-29T15:30:01.442Z,18.4
2019-05-29T15:35:01.613Z,18.4
2019-05-29T15:40:01.935Z,18.5
2019-05-29T15:45:01.822Z,19.5
2019-05-29T15:50:01.863Z,19.6
2019-05-29T15:55:19.871Z,19.7
2019-05-29T16:00:02.125Z,20
2019-05-29T16:05:01.877Z,20
2019-05-29T16:10:01.903Z,19.8
2019-05-29T16:15:01.666Z,20.1
2019-05-29T16:20:02.261Z,20.3
2019-05-29T16:25:02.039Z,20.1
2019-05-29T16:30:02.087Z,19.5
2019-05-29T16:35:02.049Z,19.5
2019-05-29T16:40:01.283Z,19.4
2019-05-29T16:45:01.182Z,18.5
2019-05-29T16:50:02.497Z,18.2
2019-05-29T16:55:01.376Z,18.2
2019-05-29T17:00:01.787Z,18.5
2019-05-29T17:05:01.738Z,18.6
2019-05-29T17:10:02.152Z,18.9
2019-05-29T17:15:01.298Z,19.1
2019-05-29T17:20:02.550Z,19
2019-05-29T17:25:01.808Z,19
2019-05-29T17:30:01.876Z,18.7
2019-05-29T17:35:01.298Z,18.1
2019-05-29T17:40:01.932Z,17.8
2019-05-29T17:45:01.536Z,17.4
2019-05-29T17:50:02.469Z,17.1
2019-05-29T17:55:01.241Z,16.8
2019-05-29T18:00:02.231Z,16.6
2019-05-29T18:05:01.333Z,16.4
2019-05-29T18:10:01.554Z,16.2
2019-05-29T18:15:01.893Z,16.1
2019-05-29T18:20:01.575Z,15.9
2019-05-29T18:25:01.227Z,15.8
2019-05-29T18:30:01.987Z,15.7
2019-05-29T18:35:01.574Z,15.3
2019-05-29T18:40:01.616Z,15.1
2019-05-29T18:45:01.427Z,14.8
2019-05-29T18:50:02.245Z,14.5
2019-05-29T18:55:01.389Z,14.4
2019-05-29T19:00:01.926Z,14.3
2019-05-29T19:05:01.729Z,14.1
2019-05-29T19:10:05.514Z,13.9
2019-05-29T19:15:01.641Z,13.8
2019-05-29T19:20:01.952Z,13.6
2019-05-29T19:25:01.672Z,13.6
2019-05-29T19:30:02.148Z,13.5
2019-05-29T19:35:02.014Z,13.2
2019-05-29T19:40:02.119Z,13.1
2019-05-29T19:45:01.733Z,13
2019-05-29T19:50:02.025Z,12.8
2019-05-29T19:55:01.749Z,12.5
2019-05-29T20:00:01.652Z,12.4
2019-05-29T20:05:02.327Z,12.2
2019-05-29T20:10:02.096Z,12
2019-05-29T20:15:01.765Z,11.7
2019-05-29T20:20:02.620Z,11.5
2019-05-29T20:25:01.997Z,11.4
2019-05-29T20:30:01.572Z,11.4
2019-05-29T20:35:01.961Z,11.3
2019-05-29T20:40:02.432Z,11
2019-05-29T20:45:01.815Z,11
2019-05-29T20:50:02.086Z,11
2019-05-29T20:55:01.303Z,10.9
2019-05-29T21:00:01.532Z,10.9
2019-05-29T21:05:01.400Z,10.7
2019-05-29T21:10:02.589Z,10.6
2019-05-29T21:15:01.489Z,10.5
2019-05-29T21:20:02.311Z,10.5
2019-05-29T21:25:07.102Z,10.4
2019-05-29T21:30:01.821Z,10.4
2019-05-29T21:35:02.025Z,10.3
2019-05-29T21:40:02.089Z,10.1
2019-05-29T21:45:01.916Z,10
2019-05-29T21:50:02.353Z,9.9
2019-05-29T21:55:01.631Z,9.8
2019-05-29T22:00:01.762Z,9.7
2019-05-29T22:05:01.595Z,9.7
2019-05-29T22:10:03.112Z,9.6
2019-05-29T22:15:02.708Z,9.6
2019-05-29T22:20:01.297Z,9.5
2019-05-29T22:25:02.345Z,9.5
2019-05-29T22:30:01.645Z,9.4
2019-05-29T22:35:02.322Z,9.4
2019-05-29T22:40:02.355Z,9.3
2019-05-29T22:45:02.195Z,9.3
2019-05-29T22:50:02.241Z,9.2
2019-05-29T22:55:02.307Z,9.1
2019-05-29T23:00:02.445Z,9.1
2019-05-29T23:05:03.622Z,9.1
2019-05-29T23:10:02.650Z,9
2019-05-29T23:15:02.875Z,8.9
2019-05-29T23:20:04.109Z,8.9
2019-05-29T23:25:03.126Z,8.8
2019-05-29T23:30:01.637Z,8.8
2019-05-29T23:35:01.368Z,8.8
2019-05-29T23:40:01.644Z,8.7
2019-05-29T23:45:01.591Z,8.6
2019-05-29T23:50:02.737Z,8.5
2019-05-29T23:55:01.914Z,8.4
